sensor_id;sensor_type;location;lat;lon;timestamp;P1;durP1;ratioP1;P2;durP2;ratioP2
75016;SDS011;63577;39.766;2.720;2023-07-28T00:01:22;7.70;;;2.30;;
75016;SDS011;63577;39.766;2.720;2023-07-28T00:03:48;6.20;;;2.50;;
75016;SDS011;63577;39.766;2.720;2023-07-28T00:06:13;6.70;;;2.40;;
75016;SDS011;63577;39.766;2.720;2023-07-28T00:08:39;6.70;;;2.60;;
75016;SDS011;63577;39.766;2.720;2023-07-28T00:11:08;6.00;;;2.40;;
75016;SDS011;63577;39.766;2.720;2023-07-28T00:13:33;6.30;;;2.20;;
75016;SDS011;63577;39.766;2.720;2023-07-28T00:15:59;6.60;;;2.60;;
75016;SDS011;63577;39.766;2.720;2023-07-28T00:18:24;7.00;;;1.90;;
75016;SDS011;63577;39.766;2.720;2023-07-28T00:20:49;6.70;;;2.60;;
75016;SDS011;63577;39.766;2.720;2023-07-28T00:23:15;5.80;;;2.10;;
75016;SDS011;63577;39.766;2.720;2023-07-28T00:25:40;6.50;;;2.50;;
75016;SDS011;63577;39.766;2.720;2023-07-28T00:28:05;6.10;;;2.40;;
75016;SDS011;63577;39.766;2.720;2023-07-28T00:30:31;6.50;;;2.20;;
75016;SDS011;63577;39.766;2.720;2023-07-28T00:32:56;8.30;;;2.20;;
75016;SDS011;63577;39.766;2.720;2023-07-28T00:35:22;5.70;;;2.30;;
75016;SDS011;63577;39.766;2.720;2023-07-28T00:37:47;6.60;;;2.30;;
75016;SDS011;63577;39.766;2.720;2023-07-28T00:40:12;6.90;;;2.80;;
75016;SDS011;63577;39.766;2.720;2023-07-28T00:42:38;6.10;;;1.90;;
75016;SDS011;63577;39.766;2.720;2023-07-28T00:45:03;5.80;;;2.40;;
75016;SDS011;63577;39.766;2.720;2023-07-28T00:47:29;5.20;;;2.20;;
75016;SDS011;63577;39.766;2.720;2023-07-28T00:49:54;6.10;;;2.30;;
75016;SDS011;63577;39.766;2.720;2023-07-28T00:52:19;6.90;;;2.20;;
75016;SDS011;63577;39.766;2.720;2023-07-28T00:54:44;6.40;;;2.40;;
75016;SDS011;63577;39.766;2.720;2023-07-28T00:57:10;6.40;;;2.70;;
75016;SDS011;63577;39.766;2.720;2023-07-28T00:59:36;6.60;;;2.50;;
75016;SDS011;63577;39.766;2.720;2023-07-28T01:02:01;8.10;;;2.70;;
75016;SDS011;63577;39.766;2.720;2023-07-28T01:04:27;6.60;;;2.50;;
75016;SDS011;63577;39.766;2.720;2023-07-28T01:09:19;8.10;;;2.40;;
75016;SDS011;63577;39.766;2.720;2023-07-28T01:11:55;7.60;;;2.30;;
75016;SDS011;63577;39.766;2.720;2023-07-28T01:16:47;7.20;;;2.60;;
75016;SDS011;63577;39.766;2.720;2023-07-28T01:19:12;7.10;;;2.70;;
75016;SDS011;63577;39.766;2.720;2023-07-28T01:21:38;4.80;;;2.30;;
75016;SDS011;63577;39.766;2.720;2023-07-28T01:24:22;6.30;;;2.30;;
75016;SDS011;63577;39.766;2.720;2023-07-28T01:26:53;5.40;;;2.30;;
75016;SDS011;63577;39.766;2.720;2023-07-28T01:29:19;8.00;;;2.40;;
75016;SDS011;63577;39.766;2.720;2023-07-28T01:31:46;7.30;;;2.50;;
75016;SDS011;63577;39.766;2.720;2023-07-28T01:34:11;4.60;;;2.30;;
75016;SDS011;63577;39.766;2.720;2023-07-28T01:36:36;6.40;;;2.30;;
75016;SDS011;63577;39.766;2.720;2023-07-28T01:39:02;5.80;;;2.10;;
75016;SDS011;63577;39.766;2.720;2023-07-28T01:41:27;5.50;;;2.10;;
75016;SDS011;63577;39.766;2.720;2023-07-28T01:43:53;7.70;;;2.40;;
75016;SDS011;63577;39.766;2.720;2023-07-28T01:46:20;7.80;;;2.50;;
75016;SDS011;63577;39.766;2.720;2023-07-28T01:48:46;5.70;;;2.30;;
75016;SDS011;63577;39.766;2.720;2023-07-28T01:51:11;6.50;;;2.40;;
75016;SDS011;63577;39.766;2.720;2023-07-28T01:53:36;5.90;;;2.60;;
75016;SDS011;63577;39.766;2.720;2023-07-28T01:56:02;5.00;;;2.30;;
75016;SDS011;63577;39.766;2.720;2023-07-28T01:58:27;7.50;;;2.50;;
75016;SDS011;63577;39.766;2.720;2023-07-28T02:00:53;8.40;;;2.50;;
75016;SDS011;63577;39.766;2.720;2023-07-28T02:03:18;7.30;;;2.80;;
75016;SDS011;63577;39.766;2.720;2023-07-28T02:05:43;7.40;;;2.70;;
75016;SDS011;63577;39.766;2.720;2023-07-28T02:08:09;5.60;;;2.30;;
75016;SDS011;63577;39.766;2.720;2023-07-28T02:10:35;6.60;;;2.50;;
75016;SDS011;63577;39.766;2.720;2023-07-28T02:13:00;6.50;;;2.20;;
75016;SDS011;63577;39.766;2.720;2023-07-28T02:15:26;6.70;;;2.50;;
75016;SDS011;63577;39.766;2.720;2023-07-28T02:17:51;7.60;;;2.40;;
75016;SDS011;63577;39.766;2.720;2023-07-28T02:20:16;5.30;;;2.40;;
75016;SDS011;63577;39.766;2.720;2023-07-28T02:22:42;7.10;;;2.30;;
75016;SDS011;63577;39.766;2.720;2023-07-28T02:25:07;8.00;;;2.50;;
75016;SDS011;63577;39.766;2.720;2023-07-28T02:27:33;6.60;;;2.30;;
75016;SDS011;63577;39.766;2.720;2023-07-28T02:29:58;8.40;;;2.60;;
75016;SDS011;63577;39.766;2.720;2023-07-28T02:32:24;8.70;;;2.40;;
75016;SDS011;63577;39.766;2.720;2023-07-28T02:34:49;7.20;;;2.20;;
75016;SDS011;63577;39.766;2.720;2023-07-28T02:37:15;8.10;;;2.40;;
75016;SDS011;63577;39.766;2.720;2023-07-28T02:39:41;6.20;;;2.40;;
75016;SDS011;63577;39.766;2.720;2023-07-28T02:42:06;7.20;;;2.30;;
75016;SDS011;63577;39.766;2.720;2023-07-28T02:44:32;7.10;;;2.50;;
75016;SDS011;63577;39.766;2.720;2023-07-28T02:46:57;6.60;;;2.60;;
75016;SDS011;63577;39.766;2.720;2023-07-28T02:49:22;5.50;;;2.20;;
75016;SDS011;63577;39.766;2.720;2023-07-28T02:51:47;7.40;;;2.20;;
75016;SDS011;63577;39.766;2.720;2023-07-28T02:54:13;5.60;;;2.40;;
75016;SDS011;63577;39.766;2.720;2023-07-28T02:56:38;7.80;;;2.30;;
75016;SDS011;63577;39.766;2.720;2023-07-28T02:59:04;8.00;;;2.70;;
75016;SDS011;63577;39.766;2.720;2023-07-28T03:01:30;6.40;;;2.60;;
75016;SDS011;63577;39.766;2.720;2023-07-28T03:03:58;7.30;;;2.30;;
75016;SDS011;63577;39.766;2.720;2023-07-28T03:06:24;7.20;;;2.60;;
75016;SDS011;63577;39.766;2.720;2023-07-28T03:08:49;7.00;;;2.30;;
75016;SDS011;63577;39.766;2.720;2023-07-28T03:11:15;6.70;;;2.40;;
75016;SDS011;63577;39.766;2.720;2023-07-28T03:13:40;5.90;;;2.60;;
75016;SDS011;63577;39.766;2.720;2023-07-28T03:16:05;6.60;;;2.40;;
75016;SDS011;63577;39.766;2.720;2023-07-28T03:18:31;5.80;;;2.50;;
75016;SDS011;63577;39.766;2.720;2023-07-28T03:20:56;5.40;;;2.30;;
75016;SDS011;63577;39.766;2.720;2023-07-28T03:23:21;6.50;;;2.10;;
75016;SDS011;63577;39.766;2.720;2023-07-28T03:25:46;4.90;;;2.10;;
75016;SDS011;63577;39.766;2.720;2023-07-28T03:28:12;5.80;;;2.20;;
75016;SDS011;63577;39.766;2.720;2023-07-28T03:30:37;5.60;;;2.00;;
75016;SDS011;63577;39.766;2.720;2023-07-28T03:33:02;8.00;;;2.30;;
75016;SDS011;63577;39.766;2.720;2023-07-28T03:35:28;7.00;;;2.30;;
75016;SDS011;63577;39.766;2.720;2023-07-28T03:37:53;8.70;;;2.90;;
75016;SDS011;63577;39.766;2.720;2023-07-28T03:40:18;5.20;;;2.10;;
75016;SDS011;63577;39.766;2.720;2023-07-28T03:42:44;6.50;;;2.00;;
75016;SDS011;63577;39.766;2.720;2023-07-28T03:45:09;6.30;;;2.40;;
75016;SDS011;63577;39.766;2.720;2023-07-28T03:47:35;4.70;;;2.40;;
75016;SDS011;63577;39.766;2.720;2023-07-28T03:50:00;5.70;;;2.50;;
75016;SDS011;63577;39.766;2.720;2023-07-28T03:52:25;6.10;;;2.70;;
75016;SDS011;63577;39.766;2.720;2023-07-28T03:54:51;5.90;;;2.10;;
75016;SDS011;63577;39.766;2.720;2023-07-28T03:57:16;6.30;;;2.60;;
75016;SDS011;63577;39.766;2.720;2023-07-28T03:59:41;6.30;;;1.90;;
75016;SDS011;63577;39.766;2.720;2023-07-28T04:02:07;5.00;;;2.70;;
75016;SDS011;63577;39.766;2.720;2023-07-28T04:04:32;6.50;;;2.70;;
75016;SDS011;63577;39.766;2.720;2023-07-28T04:06:57;6.10;;;2.30;;
75016;SDS011;63577;39.766;2.720;2023-07-28T04:09:23;5.70;;;2.40;;
75016;SDS011;63577;39.766;2.720;2023-07-28T04:11:48;6.80;;;2.10;;
75016;SDS011;63577;39.766;2.720;2023-07-28T04:14:13;5.70;;;2.20;;
75016;SDS011;63577;39.766;2.720;2023-07-28T04:16:39;5.20;;;2.00;;
75016;SDS011;63577;39.766;2.720;2023-07-28T04:19:05;5.80;;;2.10;;
75016;SDS011;63577;39.766;2.720;2023-07-28T04:21:30;5.10;;;2.00;;
75016;SDS011;63577;39.766;2.720;2023-07-28T04:23:56;5.60;;;2.00;;
75016;SDS011;63577;39.766;2.720;2023-07-28T04:26:21;4.90;;;1.90;;
75016;SDS011;63577;39.766;2.720;2023-07-28T04:28:47;5.70;;;2.30;;
75016;SDS011;63577;39.766;2.720;2023-07-28T04:31:12;4.50;;;1.90;;
75016;SDS011;63577;39.766;2.720;2023-07-28T04:33:40;5.90;;;2.40;;
75016;SDS011;63577;39.766;2.720;2023-07-28T04:36:06;5.80;;;1.90;;
75016;SDS011;63577;39.766;2.720;2023-07-28T04:38:31;5.20;;;1.60;;
75016;SDS011;63577;39.766;2.720;2023-07-28T04:40:56;7.50;;;2.00;;
75016;SDS011;63577;39.766;2.720;2023-07-28T04:43:22;6.30;;;2.50;;
75016;SDS011;63577;39.766;2.720;2023-07-28T04:45:47;4.80;;;1.90;;
75016;SDS011;63577;39.766;2.720;2023-07-28T04:48:12;7.30;;;2.30;;
75016;SDS011;63577;39.766;2.720;2023-07-28T04:50:38;4.70;;;1.80;;
75016;SDS011;63577;39.766;2.720;2023-07-28T04:53:03;7.10;;;2.30;;
75016;SDS011;63577;39.766;2.720;2023-07-28T04:55:28;6.30;;;2.30;;
75016;SDS011;63577;39.766;2.720;2023-07-28T04:57:55;5.50;;;2.20;;
75016;SDS011;63577;39.766;2.720;2023-07-28T05:00:21;5.80;;;2.10;;
75016;SDS011;63577;39.766;2.720;2023-07-28T05:02:46;6.60;;;1.90;;
75016;SDS011;63577;39.766;2.720;2023-07-28T05:05:12;5.60;;;2.20;;
75016;SDS011;63577;39.766;2.720;2023-07-28T05:07:37;9.10;;;2.30;;
75016;SDS011;63577;39.766;2.720;2023-07-28T05:10:03;5.90;;;2.40;;
75016;SDS011;63577;39.766;2.720;2023-07-28T05:12:28;6.30;;;2.10;;
75016;SDS011;63577;39.766;2.720;2023-07-28T05:14:53;4.60;;;1.90;;
75016;SDS011;63577;39.766;2.720;2023-07-28T05:17:19;5.60;;;2.40;;
75016;SDS011;63577;39.766;2.720;2023-07-28T05:19:44;7.30;;;2.20;;
75016;SDS011;63577;39.766;2.720;2023-07-28T05:22:09;5.90;;;1.90;;
75016;SDS011;63577;39.766;2.720;2023-07-28T05:24:35;5.10;;;2.20;;
75016;SDS011;63577;39.766;2.720;2023-07-28T05:27:00;6.40;;;2.20;;
75016;SDS011;63577;39.766;2.720;2023-07-28T05:29:25;4.70;;;2.10;;
75016;SDS011;63577;39.766;2.720;2023-07-28T05:31:51;7.20;;;2.40;;
75016;SDS011;63577;39.766;2.720;2023-07-28T05:34:16;5.80;;;2.10;;
75016;SDS011;63577;39.766;2.720;2023-07-28T05:36:42;7.50;;;1.90;;
75016;SDS011;63577;39.766;2.720;2023-07-28T05:39:08;10.80;;;3.90;;
75016;SDS011;63577;39.766;2.720;2023-07-28T05:41:33;13.60;;;5.10;;
75016;SDS011;63577;39.766;2.720;2023-07-28T05:43:58;12.10;;;5.10;;
75016;SDS011;63577;39.766;2.720;2023-07-28T05:46:24;8.70;;;3.80;;
75016;SDS011;63577;39.766;2.720;2023-07-28T05:48:49;6.90;;;3.00;;
75016;SDS011;63577;39.766;2.720;2023-07-28T05:51:14;6.90;;;2.90;;
75016;SDS011;63577;39.766;2.720;2023-07-28T05:53:40;9.20;;;3.30;;
75016;SDS011;63577;39.766;2.720;2023-07-28T05:56:05;7.70;;;3.90;;
75016;SDS011;63577;39.766;2.720;2023-07-28T05:58:30;10.30;;;3.90;;
75016;SDS011;63577;39.766;2.720;2023-07-28T06:00:56;10.50;;;5.10;;
75016;SDS011;63577;39.766;2.720;2023-07-28T06:03:21;9.50;;;3.60;;
75016;SDS011;63577;39.766;2.720;2023-07-28T06:05:47;10.40;;;3.60;;
75016;SDS011;63577;39.766;2.720;2023-07-28T06:08:12;8.70;;;3.40;;
75016;SDS011;63577;39.766;2.720;2023-07-28T06:10:39;8.00;;;3.00;;
75016;SDS011;63577;39.766;2.720;2023-07-28T06:13:04;6.20;;;3.20;;
75016;SDS011;63577;39.766;2.720;2023-07-28T06:15:30;7.40;;;3.20;;
75016;SDS011;63577;39.766;2.720;2023-07-28T06:17:55;7.60;;;2.70;;
75016;SDS011;63577;39.766;2.720;2023-07-28T06:20:21;9.00;;;2.70;;
75016;SDS011;63577;39.766;2.720;2023-07-28T06:22:46;8.00;;;2.80;;
75016;SDS011;63577;39.766;2.720;2023-07-28T06:25:11;7.20;;;2.80;;
75016;SDS011;63577;39.766;2.720;2023-07-28T06:27:37;8.40;;;3.40;;
75016;SDS011;63577;39.766;2.720;2023-07-28T06:30:04;9.00;;;3.50;;
75016;SDS011;63577;39.766;2.720;2023-07-28T06:32:30;12.00;;;5.10;;
75016;SDS011;63577;39.766;2.720;2023-07-28T06:34:56;9.80;;;5.20;;
75016;SDS011;63577;39.766;2.720;2023-07-28T06:37:22;8.80;;;4.50;;
75016;SDS011;63577;39.766;2.720;2023-07-28T06:39:48;7.20;;;2.90;;
75016;SDS011;63577;39.766;2.720;2023-07-28T06:42:14;10.30;;;3.40;;
75016;SDS011;63577;39.766;2.720;2023-07-28T06:44:39;9.50;;;3.20;;
75016;SDS011;63577;39.766;2.720;2023-07-28T06:47:05;6.60;;;3.00;;
75016;SDS011;63577;39.766;2.720;2023-07-28T06:49:30;8.60;;;3.00;;
75016;SDS011;63577;39.766;2.720;2023-07-28T06:51:55;5.70;;;2.70;;
75016;SDS011;63577;39.766;2.720;2023-07-28T06:54:21;9.60;;;2.50;;
75016;SDS011;63577;39.766;2.720;2023-07-28T06:56:46;7.20;;;2.80;;
75016;SDS011;63577;39.766;2.720;2023-07-28T06:59:11;7.90;;;2.90;;
75016;SDS011;63577;39.766;2.720;2023-07-28T07:01:37;8.80;;;2.80;;
75016;SDS011;63577;39.766;2.720;2023-07-28T07:04:02;7.10;;;2.70;;
75016;SDS011;63577;39.766;2.720;2023-07-28T07:06:29;7.80;;;2.80;;
75016;SDS011;63577;39.766;2.720;2023-07-28T07:08:55;8.60;;;2.60;;
75016;SDS011;63577;39.766;2.720;2023-07-28T07:11:20;8.20;;;2.70;;
75016;SDS011;63577;39.766;2.720;2023-07-28T07:13:46;6.30;;;2.80;;
75016;SDS011;63577;39.766;2.720;2023-07-28T07:16:14;6.20;;;2.50;;
75016;SDS011;63577;39.766;2.720;2023-07-28T07:18:42;6.30;;;2.30;;
75016;SDS011;63577;39.766;2.720;2023-07-28T07:21:07;6.60;;;2.20;;
75016;SDS011;63577;39.766;2.720;2023-07-28T07:23:32;5.00;;;1.90;;
75016;SDS011;63577;39.766;2.720;2023-07-28T07:25:58;6.30;;;2.10;;
75016;SDS011;63577;39.766;2.720;2023-07-28T07:28:23;6.10;;;2.10;;
75016;SDS011;63577;39.766;2.720;2023-07-28T07:30:48;6.60;;;2.40;;
75016;SDS011;63577;39.766;2.720;2023-07-28T07:33:14;6.00;;;2.00;;
75016;SDS011;63577;39.766;2.720;2023-07-28T07:35:39;6.70;;;2.40;;
75016;SDS011;63577;39.766;2.720;2023-07-28T07:38:04;7.70;;;2.60;;
75016;SDS011;63577;39.766;2.720;2023-07-28T07:40:34;5.80;;;2.10;;
75016;SDS011;63577;39.766;2.720;2023-07-28T07:42:59;8.00;;;2.30;;
75016;SDS011;63577;39.766;2.720;2023-07-28T07:45:24;6.80;;;2.40;;
75016;SDS011;63577;39.766;2.720;2023-07-28T07:47:50;6.20;;;2.10;;
75016;SDS011;63577;39.766;2.720;2023-07-28T07:50:15;6.00;;;2.00;;
75016;SDS011;63577;39.766;2.720;2023-07-28T07:52:40;5.80;;;2.10;;
75016;SDS011;63577;39.766;2.720;2023-07-28T07:55:06;6.20;;;2.20;;
75016;SDS011;63577;39.766;2.720;2023-07-28T07:57:31;7.10;;;2.50;;
75016;SDS011;63577;39.766;2.720;2023-07-28T07:59:57;9.10;;;2.40;;
75016;SDS011;63577;39.766;2.720;2023-07-28T08:02:23;7.80;;;2.40;;
75016;SDS011;63577;39.766;2.720;2023-07-28T08:04:48;6.90;;;2.30;;
75016;SDS011;63577;39.766;2.720;2023-07-28T08:07:13;7.60;;;2.20;;
75016;SDS011;63577;39.766;2.720;2023-07-28T08:09:41;6.90;;;2.20;;
75016;SDS011;63577;39.766;2.720;2023-07-28T08:12:07;7.00;;;2.00;;
75016;SDS011;63577;39.766;2.720;2023-07-28T08:14:32;7.40;;;2.20;;
75016;SDS011;63577;39.766;2.720;2023-07-28T08:16:58;7.60;;;2.30;;
75016;SDS011;63577;39.766;2.720;2023-07-28T08:19:23;7.00;;;2.10;;
75016;SDS011;63577;39.766;2.720;2023-07-28T08:21:48;6.60;;;2.00;;
75016;SDS011;63577;39.766;2.720;2023-07-28T08:24:14;6.30;;;2.30;;
75016;SDS011;63577;39.766;2.720;2023-07-28T08:26:39;6.60;;;2.40;;
75016;SDS011;63577;39.766;2.720;2023-07-28T08:29:04;6.10;;;1.90;;
75016;SDS011;63577;39.766;2.720;2023-07-28T08:31:30;5.80;;;2.00;;
75016;SDS011;63577;39.766;2.720;2023-07-28T08:33:56;8.00;;;1.90;;
75016;SDS011;63577;39.766;2.720;2023-07-28T08:36:21;7.90;;;2.30;;
75016;SDS011;63577;39.766;2.720;2023-07-28T08:38:47;10.30;;;2.40;;
75016;SDS011;63577;39.766;2.720;2023-07-28T08:41:14;8.20;;;2.30;;
75016;SDS011;63577;39.766;2.720;2023-07-28T08:43:39;7.40;;;2.20;;
75016;SDS011;63577;39.766;2.720;2023-07-28T08:46:05;6.10;;;2.30;;
75016;SDS011;63577;39.766;2.720;2023-07-28T08:48:30;8.10;;;2.30;;
75016;SDS011;63577;39.766;2.720;2023-07-28T08:50:56;8.70;;;2.20;;
75016;SDS011;63577;39.766;2.720;2023-07-28T08:53:21;9.20;;;2.60;;
75016;SDS011;63577;39.766;2.720;2023-07-28T08:55:47;7.60;;;2.50;;
75016;SDS011;63577;39.766;2.720;2023-07-28T08:58:13;5.00;;;1.90;;
75016;SDS011;63577;39.766;2.720;2023-07-28T09:00:40;6.60;;;2.20;;
75016;SDS011;63577;39.766;2.720;2023-07-28T09:03:07;7.10;;;2.20;;
75016;SDS011;63577;39.766;2.720;2023-07-28T09:05:33;6.00;;;2.00;;
75016;SDS011;63577;39.766;2.720;2023-07-28T09:07:58;7.70;;;2.60;;
75016;SDS011;63577;39.766;2.720;2023-07-28T09:10:24;5.70;;;2.00;;
75016;SDS011;63577;39.766;2.720;2023-07-28T09:12:50;6.80;;;2.20;;
75016;SDS011;63577;39.766;2.720;2023-07-28T09:15:15;6.50;;;2.20;;
75016;SDS011;63577;39.766;2.720;2023-07-28T09:17:44;10.10;;;2.20;;
75016;SDS011;63577;39.766;2.720;2023-07-28T09:20:12;6.10;;;2.10;;
75016;SDS011;63577;39.766;2.720;2023-07-28T09:22:38;4.80;;;1.90;;
75016;SDS011;63577;39.766;2.720;2023-07-28T09:25:14;8.20;;;2.30;;
75016;SDS011;63577;39.766;2.720;2023-07-28T09:27:40;6.60;;;2.30;;
75016;SDS011;63577;39.766;2.720;2023-07-28T09:30:05;6.20;;;2.10;;
75016;SDS011;63577;39.766;2.720;2023-07-28T09:32:32;7.50;;;2.10;;
75016;SDS011;63577;39.766;2.720;2023-07-28T09:35:08;4.90;;;2.00;;
75016;SDS011;63577;39.766;2.720;2023-07-28T09:37:38;6.20;;;2.00;;
75016;SDS011;63577;39.766;2.720;2023-07-28T09:40:10;6.70;;;2.20;;
75016;SDS011;63577;39.766;2.720;2023-07-28T09:42:41;6.50;;;2.30;;
75016;SDS011;63577;39.766;2.720;2023-07-28T09:45:08;7.30;;;2.30;;
75016;SDS011;63577;39.766;2.720;2023-07-28T09:47:34;6.80;;;2.10;;
75016;SDS011;63577;39.766;2.720;2023-07-28T09:50:01;6.50;;;1.80;;
75016;SDS011;63577;39.766;2.720;2023-07-28T09:52:28;9.00;;;2.00;;
75016;SDS011;63577;39.766;2.720;2023-07-28T09:54:56;7.00;;;1.90;;
75016;SDS011;63577;39.766;2.720;2023-07-28T09:57:23;7.00;;;2.70;;
75016;SDS011;63577;39.766;2.720;2023-07-28T09:59:49;6.10;;;2.30;;
75016;SDS011;63577;39.766;2.720;2023-07-28T10:02:15;7.60;;;1.80;;
75016;SDS011;63577;39.766;2.720;2023-07-28T10:04:41;6.10;;;1.90;;
75016;SDS011;63577;39.766;2.720;2023-07-28T10:07:07;5.70;;;2.20;;
75016;SDS011;63577;39.766;2.720;2023-07-28T10:09:32;6.40;;;2.10;;
75016;SDS011;63577;39.766;2.720;2023-07-28T10:12:03;5.40;;;2.10;;
75016;SDS011;63577;39.766;2.720;2023-07-28T10:14:34;7.30;;;2.40;;
75016;SDS011;63577;39.766;2.720;2023-07-28T10:17:00;6.70;;;2.40;;
75016;SDS011;63577;39.766;2.720;2023-07-28T10:19:33;6.30;;;1.70;;
75016;SDS011;63577;39.766;2.720;2023-07-28T10:22:17;5.40;;;2.20;;
75016;SDS011;63577;39.766;2.720;2023-07-28T10:24:50;7.00;;;2.10;;
75016;SDS011;63577;39.766;2.720;2023-07-28T10:27:28;7.90;;;2.50;;
75016;SDS011;63577;39.766;2.720;2023-07-28T10:29:57;9.30;;;2.70;;
75016;SDS011;63577;39.766;2.720;2023-07-28T10:32:27;5.60;;;2.40;;
75016;SDS011;63577;39.766;2.720;2023-07-28T10:34:59;6.90;;;1.90;;
75016;SDS011;63577;39.766;2.720;2023-07-28T10:37:25;6.30;;;2.00;;
75016;SDS011;63577;39.766;2.720;2023-07-28T10:40:13;6.40;;;1.90;;
75016;SDS011;63577;39.766;2.720;2023-07-28T10:42:36;5.80;;;2.20;;
75016;SDS011;63577;39.766;2.720;2023-07-28T10:45:01;6.80;;;2.30;;
75016;SDS011;63577;39.766;2.720;2023-07-28T10:47:28;7.30;;;2.30;;
75016;SDS011;63577;39.766;2.720;2023-07-28T10:49:53;8.00;;;2.30;;
75016;SDS011;63577;39.766;2.720;2023-07-28T10:52:19;8.90;;;1.90;;
75016;SDS011;63577;39.766;2.720;2023-07-28T10:57:13;4.80;;;1.70;;
75016;SDS011;63577;39.766;2.720;2023-07-28T10:59:39;5.10;;;1.90;;
75016;SDS011;63577;39.766;2.720;2023-07-28T11:02:04;5.10;;;1.90;;
75016;SDS011;63577;39.766;2.720;2023-07-28T11:04:30;7.50;;;2.10;;
75016;SDS011;63577;39.766;2.720;2023-07-28T11:06:55;8.20;;;2.40;;
75016;SDS011;63577;39.766;2.720;2023-07-28T11:09:24;6.30;;;2.30;;
75016;SDS011;63577;39.766;2.720;2023-07-28T11:11:49;5.60;;;2.00;;
75016;SDS011;63577;39.766;2.720;2023-07-28T11:14:18;8.80;;;2.00;;
75016;SDS011;63577;39.766;2.720;2023-07-28T11:16:43;5.70;;;1.80;;
75016;SDS011;63577;39.766;2.720;2023-07-28T11:19:18;5.30;;;2.20;;
75016;SDS011;63577;39.766;2.720;2023-07-28T11:21:49;7.50;;;2.80;;
75016;SDS011;63577;39.766;2.720;2023-07-28T11:24:19;7.40;;;2.20;;
75016;SDS011;63577;39.766;2.720;2023-07-28T11:26:45;6.10;;;2.10;;
75016;SDS011;63577;39.766;2.720;2023-07-28T11:29:11;5.70;;;1.90;;
75016;SDS011;63577;39.766;2.720;2023-07-28T11:31:36;8.10;;;2.40;;
75016;SDS011;63577;39.766;2.720;2023-07-28T11:34:02;5.50;;;2.20;;
75016;SDS011;63577;39.766;2.720;2023-07-28T11:36:29;6.30;;;2.00;;
75016;SDS011;63577;39.766;2.720;2023-07-28T11:38:54;6.10;;;2.10;;
75016;SDS011;63577;39.766;2.720;2023-07-28T11:41:20;5.60;;;2.00;;
75016;SDS011;63577;39.766;2.720;2023-07-28T11:43:49;6.50;;;1.90;;
75016;SDS011;63577;39.766;2.720;2023-07-28T11:49:33;5.60;;;2.10;;
75016;SDS011;63577;39.766;2.720;2023-07-28T11:51:54;7.50;;;2.10;;
75016;SDS011;63577;39.766;2.720;2023-07-28T11:54:23;7.70;;;2.20;;
75016;SDS011;63577;39.766;2.720;2023-07-28T11:56:49;6.30;;;1.90;;
75016;SDS011;63577;39.766;2.720;2023-07-28T11:59:16;7.20;;;2.00;;
75016;SDS011;63577;39.766;2.720;2023-07-28T12:02:00;8.00;;;2.10;;
75016;SDS011;63577;39.766;2.720;2023-07-28T12:04:28;9.90;;;2.40;;
75016;SDS011;63577;39.766;2.720;2023-07-28T12:07:09;8.40;;;2.00;;
75016;SDS011;63577;39.766;2.720;2023-07-28T12:12:28;7.30;;;2.40;;
75016;SDS011;63577;39.766;2.720;2023-07-28T12:14:57;8.10;;;2.10;;
75016;SDS011;63577;39.766;2.720;2023-07-28T12:17:30;5.70;;;1.90;;
75016;SDS011;63577;39.766;2.720;2023-07-28T12:22:21;6.30;;;2.10;;
75016;SDS011;63577;39.766;2.720;2023-07-28T12:24:46;7.60;;;2.30;;
75016;SDS011;63577;39.766;2.720;2023-07-28T12:27:11;6.10;;;2.50;;
75016;SDS011;63577;39.766;2.720;2023-07-28T12:29:38;6.00;;;1.80;;
75016;SDS011;63577;39.766;2.720;2023-07-28T12:32:04;7.40;;;2.10;;
75016;SDS011;63577;39.766;2.720;2023-07-28T12:34:29;6.00;;;2.30;;
75016;SDS011;63577;39.766;2.720;2023-07-28T12:36:55;7.20;;;2.00;;
75016;SDS011;63577;39.766;2.720;2023-07-28T12:39:21;9.00;;;2.40;;
75016;SDS011;63577;39.766;2.720;2023-07-28T12:41:46;7.00;;;2.10;;
75016;SDS011;63577;39.766;2.720;2023-07-28T12:44:11;9.50;;;2.10;;
75016;SDS011;63577;39.766;2.720;2023-07-28T12:46:37;6.10;;;2.20;;
75016;SDS011;63577;39.766;2.720;2023-07-28T12:49:03;5.20;;;2.20;;
75016;SDS011;63577;39.766;2.720;2023-07-28T12:51:29;6.20;;;2.20;;
75016;SDS011;63577;39.766;2.720;2023-07-28T12:53:55;6.60;;;2.00;;
75016;SDS011;63577;39.766;2.720;2023-07-28T12:56:20;7.10;;;2.20;;
75016;SDS011;63577;39.766;2.720;2023-07-28T12:58:46;7.20;;;2.00;;
75016;SDS011;63577;39.766;2.720;2023-07-28T13:01:11;9.70;;;2.40;;
75016;SDS011;63577;39.766;2.720;2023-07-28T13:03:37;7.30;;;2.10;;
75016;SDS011;63577;39.766;2.720;2023-07-28T13:06:03;5.20;;;2.10;;
75016;SDS011;63577;39.766;2.720;2023-07-28T13:08:29;6.20;;;1.80;;
75016;SDS011;63577;39.766;2.720;2023-07-28T13:10:54;5.90;;;1.90;;
75016;SDS011;63577;39.766;2.720;2023-07-28T13:13:20;6.60;;;1.90;;
75016;SDS011;63577;39.766;2.720;2023-07-28T13:15:45;5.70;;;2.10;;
75016;SDS011;63577;39.766;2.720;2023-07-28T13:18:11;5.60;;;2.00;;
75016;SDS011;63577;39.766;2.720;2023-07-28T13:20:36;7.40;;;2.40;;
75016;SDS011;63577;39.766;2.720;2023-07-28T13:23:01;6.30;;;2.00;;
75016;SDS011;63577;39.766;2.720;2023-07-28T13:25:27;6.50;;;2.10;;
75016;SDS011;63577;39.766;2.720;2023-07-28T13:27:52;5.80;;;2.20;;
75016;SDS011;63577;39.766;2.720;2023-07-28T13:30:18;5.40;;;1.80;;
75016;SDS011;63577;39.766;2.720;2023-07-28T13:32:43;8.00;;;1.80;;
75016;SDS011;63577;39.766;2.720;2023-07-28T13:35:09;6.50;;;2.10;;
75016;SDS011;63577;39.766;2.720;2023-07-28T13:37:34;5.00;;;1.80;;
75016;SDS011;63577;39.766;2.720;2023-07-28T13:39:59;6.70;;;2.00;;
75016;SDS011;63577;39.766;2.720;2023-07-28T13:42:25;7.00;;;2.10;;
75016;SDS011;63577;39.766;2.720;2023-07-28T13:44:50;5.60;;;2.00;;
75016;SDS011;63577;39.766;2.720;2023-07-28T13:47:15;5.80;;;1.90;;
75016;SDS011;63577;39.766;2.720;2023-07-28T13:49:41;5.70;;;1.80;;
75016;SDS011;63577;39.766;2.720;2023-07-28T13:52:06;5.90;;;2.20;;
75016;SDS011;63577;39.766;2.720;2023-07-28T13:54:32;7.40;;;1.80;;
75016;SDS011;63577;39.766;2.720;2023-07-28T13:56:57;6.00;;;1.80;;
75016;SDS011;63577;39.766;2.720;2023-07-28T13:59:22;5.60;;;1.90;;
75016;SDS011;63577;39.766;2.720;2023-07-28T14:01:48;6.70;;;1.90;;
75016;SDS011;63577;39.766;2.720;2023-07-28T14:04:13;6.50;;;2.00;;
75016;SDS011;63577;39.766;2.720;2023-07-28T14:06:39;6.00;;;2.10;;
75016;SDS011;63577;39.766;2.720;2023-07-28T14:09:04;4.90;;;1.70;;
75016;SDS011;63577;39.766;2.720;2023-07-28T14:11:30;4.70;;;1.70;;
75016;SDS011;63577;39.766;2.720;2023-07-28T14:13:55;5.40;;;1.80;;
75016;SDS011;63577;39.766;2.720;2023-07-28T14:16:20;6.80;;;1.70;;
75016;SDS011;63577;39.766;2.720;2023-07-28T14:18:45;6.30;;;2.00;;
75016;SDS011;63577;39.766;2.720;2023-07-28T14:21:13;6.40;;;1.90;;
75016;SDS011;63577;39.766;2.720;2023-07-28T14:23:38;6.40;;;1.90;;
75016;SDS011;63577;39.766;2.720;2023-07-28T14:26:04;5.00;;;1.60;;
75016;SDS011;63577;39.766;2.720;2023-07-28T14:28:29;5.40;;;1.90;;
75016;SDS011;63577;39.766;2.720;2023-07-28T14:30:55;4.70;;;2.00;;
75016;SDS011;63577;39.766;2.720;2023-07-28T14:33:20;5.50;;;1.90;;
75016;SDS011;63577;39.766;2.720;2023-07-28T14:35:46;6.00;;;1.80;;
75016;SDS011;63577;39.766;2.720;2023-07-28T14:38:12;5.00;;;1.70;;
75016;SDS011;63577;39.766;2.720;2023-07-28T14:40:37;9.20;;;2.20;;
75016;SDS011;63577;39.766;2.720;2023-07-28T14:43:05;6.50;;;1.80;;
75016;SDS011;63577;39.766;2.720;2023-07-28T14:45:30;6.30;;;2.00;;
75016;SDS011;63577;39.766;2.720;2023-07-28T14:47:55;5.60;;;1.70;;
75016;SDS011;63577;39.766;2.720;2023-07-28T14:50:21;6.60;;;1.80;;
75016;SDS011;63577;39.766;2.720;2023-07-28T14:52:47;6.70;;;2.00;;
75016;SDS011;63577;39.766;2.720;2023-07-28T14:55:13;6.90;;;2.00;;
75016;SDS011;63577;39.766;2.720;2023-07-28T14:57:38;7.30;;;2.00;;